Time;durP1;ratioP1;P1;durP2;ratioP2;P2;SDS_P1;SDS_P2;PMS_P1;PMS_P2;Temp;Humidity;BMP_temperature;BMP_pressure;BME280_temperature;BME280_humidity;BME280_pressure;Samples;Min_cycle;Max_cycle;Signal;HPM_P1;HPM_P2
2021/08/15 00:02:25;;;;;;;20.13;16.57;;;17.60;99.90;;;;;;5025424;28;20202;-40
2021/08/15 00:04:51;;;;;;;22.90;17.00;;;17.50;99.90;;;;;;5030424;28;20386;-38
2021/08/15 00:07:18;;;;;;;20.10;16.70;;;17.50;99.90;;;;;;5039353;28;20279;-38
2021/08/15 00:09:43;;;;;;;22.30;17.00;;;17.30;99.90;;;;;;5040026;28;20192;-39
2021/08/15 00:12:09;;;;;;;22.10;17.53;;;17.30;99.90;;;;;;5028572;28;20457;-38
2021/08/15 00:14:35;;;;;;;21.43;18.17;;;17.20;99.90;;;;;;5033028;28;20178;-39
2021/08/15 00:17:01;;;;;;;20.80;17.40;;;17.30;99.90;;;;;;5028911;28;20475;-38
2021/08/15 00:19:27;;;;;;;20.00;17.17;;;17.30;99.90;;;;;;5028508;28;20265;-38
2021/08/15 00:21:52;;;;;;;25.07;19.27;;;17.40;99.90;;;;;;5044892;28;20460;-38
2021/08/15 00:24:18;;;;;;;20.07;17.73;;;17.40;99.90;;;;;;5042185;28;20181;-38
2021/08/15 00:26:44;;;;;;;19.07;16.97;;;17.40;99.90;;;;;;5028970;28;20305;-38
2021/08/15 00:29:10;;;;;;;21.53;16.90;;;17.30;99.90;;;;;;5041179;28;20607;-38
2021/08/15 00:31:35;;;;;;;22.70;17.43;;;17.20;99.90;;;;;;5029017;28;20619;-41
2021/08/15 00:34:02;;;;;;;25.27;17.83;;;17.10;99.90;;;;;;5029117;28;20325;-40
2021/08/15 00:36:27;;;;;;;20.73;16.67;;;17.10;99.90;;;;;;5030866;28;20198;-38
2021/08/15 00:38:53;;;;;;;19.73;15.80;;;17.00;99.90;;;;;;5037528;28;20425;-38
2021/08/15 00:41:20;;;;;;;19.80;16.67;;;17.10;99.90;;;;;;5034371;28;20216;-39
2021/08/15 00:43:45;;;;;;;23.07;18.10;;;17.10;99.90;;;;;;5042664;28;20186;-38
2021/08/15 00:46:13;;;;;;;22.73;17.37;;;17.10;99.90;;;;;;5048662;28;20435;-39
2021/08/15 00:48:39;;;;;;;22.57;17.90;;;17.00;99.90;;;;;;5047753;28;20212;-38
2021/08/15 00:51:05;;;;;;;21.30;17.60;;;17.00;99.90;;;;;;5033077;28;20464;-40
2021/08/15 00:53:35;;;;;;;20.03;17.33;;;16.90;99.90;;;;;;5038219;28;20499;-39
2021/08/15 00:56:03;;;;;;;19.60;17.03;;;16.90;99.90;;;;;;5036383;28;20594;-40
2021/08/15 00:58:31;;;;;;;28.20;18.20;;;16.80;99.90;;;;;;5047510;28;20466;-38
2021/08/15 01:01:04;;;;;;;20.83;17.57;;;16.90;99.90;;;;;;5027753;28;20441;-39
2021/08/15 01:03:31;;;;;;;20.83;16.23;;;16.90;99.90;;;;;;5028055;28;20719;-38
2021/08/15 01:06:01;;;;;;;22.07;17.50;;;16.90;99.90;;;;;;5031887;28;20460;-39
2021/08/15 01:08:31;;;;;;;21.90;16.70;;;16.90;99.90;;;;;;5043700;28;20662;-38
2021/08/15 01:11:09;;;;;;;22.03;16.50;;;16.90;99.90;;;;;;5029710;28;20441;-38
2021/08/15 01:13:36;;;;;;;20.17;16.80;;;16.90;99.90;;;;;;5028344;28;20461;-38
2021/08/15 01:16:03;;;;;;;19.90;15.57;;;16.80;99.90;;;;;;5027569;28;20803;-38
2021/08/15 01:18:33;;;;;;;19.10;16.60;;;16.80;99.90;;;;;;5028368;28;20816;-38
2021/08/15 01:21:00;;;;;;;18.33;15.37;;;16.80;99.90;;;;;;5035082;28;20831;-38
2021/08/15 01:23:27;;;;;;;23.13;17.20;;;16.90;99.90;;;;;;5035308;28;20814;-38
2021/08/15 01:25:53;;;;;;;18.97;16.73;;;16.90;99.90;;;;;;5030377;28;20437;-38
2021/08/15 01:28:21;;;;;;;20.50;17.00;;;16.90;99.90;;;;;;5030184;28;20442;-39
2021/08/15 01:30:47;;;;;;;19.47;17.40;;;17.00;99.90;;;;;;5034656;28;20440;-39
2021/08/15 01:33:27;;;;;;;19.23;17.17;;;16.90;99.90;;;;;;5026239;28;20454;-38
2021/08/15 01:35:53;;;;;;;22.73;15.80;;;17.00;99.90;;;;;;5030148;28;20636;-38
2021/08/15 01:38:20;;;;;;;18.50;16.50;;;16.90;99.90;;;;;;5031788;28;20828;-38
2021/08/15 01:40:46;;;;;;;25.80;17.80;;;16.90;99.90;;;;;;5029674;28;20424;-38
2021/08/15 01:43:12;;;;;;;21.23;15.97;;;16.90;99.90;;;;;;5030378;28;20412;-41
2021/08/15 01:45:38;;;;;;;18.80;15.67;;;17.00;99.90;;;;;;5031816;28;20681;-38
2021/08/15 01:48:04;;;;;;;22.43;17.23;;;17.00;99.90;;;;;;5027668;28;20194;-38
2021/08/15 01:50:29;;;;;;;20.37;15.93;;;17.00;99.90;;;;;;5027730;28;20256;-38
2021/08/15 01:52:55;;;;;;;22.10;16.10;;;17.00;99.90;;;;;;5043836;28;20206;-38
2021/08/15 01:55:21;;;;;;;18.40;15.53;;;17.10;99.90;;;;;;5041514;28;20192;-38
2021/08/15 01:57:46;;;;;;;19.17;15.87;;;17.10;99.90;;;;;;5027236;28;20615;-38
2021/08/15 02:00:12;;;;;;;17.57;15.30;;;17.00;99.90;;;;;;5027254;28;20240;-38
2021/08/15 02:02:43;;;;;;;18.87;15.20;;;17.00;99.90;;;;;;5027153;28;20221;-40
2021/08/15 02:05:16;;;;;;;23.50;17.00;;;17.00;99.90;;;;;;5028774;28;20959;-38
2021/08/15 02:07:42;;;;;;;25.20;15.97;;;17.00;99.90;;;;;;5033557;28;20565;-38
2021/08/15 02:10:08;;;;;;;18.97;15.17;;;16.90;99.90;;;;;;5036860;28;21003;-38
2021/08/15 02:12:34;;;;;;;21.23;15.50;;;16.90;99.90;;;;;;5026912;28;20487;-38
2021/08/15 02:14:59;;;;;;;17.20;13.57;;;16.80;99.90;;;;;;5037157;28;20975;-38
2021/08/15 02:17:25;;;;;;;18.00;14.23;;;16.80;99.90;;;;;;5026671;28;20194;-41
2021/08/15 02:19:50;;;;;;;18.93;15.30;;;16.80;99.90;;;;;;5026628;28;20182;-38
2021/08/15 02:22:16;;;;;;;22.37;16.27;;;16.80;99.90;;;;;;5033265;28;20209;-38
2021/08/15 02:24:42;;;;;;;18.90;14.57;;;16.80;99.90;;;;;;5037116;28;20267;-39
2021/08/15 02:27:07;;;;;;;18.33;14.90;;;16.70;99.90;;;;;;5026957;28;20526;-39
2021/08/15 02:29:33;;;;;;;21.27;15.37;;;16.60;99.90;;;;;;5032139;28;20233;-38
2021/08/15 02:31:59;;;;;;;17.17;15.37;;;16.70;99.90;;;;;;5026718;28;20272;-39
2021/08/15 02:34:26;;;;;;;19.70;15.20;;;16.70;99.90;;;;;;5026318;28;20214;-38
2021/08/15 02:36:52;;;;;;;16.83;15.07;;;16.70;99.90;;;;;;5034391;28;20174;-38
2021/08/15 02:39:18;;;;;;;19.97;15.37;;;16.70;99.90;;;;;;5032738;28;20432;-38
2021/08/15 02:41:43;;;;;;;21.70;15.63;;;16.70;99.90;;;;;;5036870;28;20198;-38
2021/08/15 02:44:09;;;;;;;19.90;14.97;;;16.70;99.90;;;;;;5033459;28;20222;-39
2021/08/15 02:46:34;;;;;;;19.40;15.17;;;16.70;99.90;;;;;;5026509;28;20206;-39
2021/08/15 02:49:00;;;;;;;22.30;16.97;;;16.70;99.90;;;;;;5025791;28;20574;-38
2021/08/15 02:51:26;;;;;;;19.80;15.90;;;16.70;99.90;;;;;;5026783;28;20577;-38
2021/08/15 02:53:53;;;;;;;23.20;17.03;;;16.80;99.90;;;;;;5032630;28;20186;-41
2021/08/15 02:56:19;;;;;;;20.67;15.80;;;16.80;99.90;;;;;;5031807;28;20256;-38
2021/08/15 02:58:44;;;;;;;22.43;16.43;;;16.90;99.90;;;;;;5025580;28;20429;-38
2021/08/15 03:01:10;;;;;;;20.10;16.57;;;16.90;99.90;;;;;;5036803;28;20190;-38
2021/08/15 03:03:37;;;;;;;21.27;16.60;;;16.90;99.90;;;;;;5026054;28;20198;-39
2021/08/15 03:06:02;;;;;;;20.77;15.90;;;16.80;99.90;;;;;;5025463;28;20190;-40
2021/08/15 03:08:28;;;;;;;19.90;15.53;;;16.80;99.90;;;;;;5028893;28;20441;-38
2021/08/15 03:10:54;;;;;;;21.93;15.67;;;16.80;99.90;;;;;;5035608;28;20197;-38
2021/08/15 03:13:19;;;;;;;24.03;16.03;;;16.70;99.90;;;;;;5025901;28;20210;-38
2021/08/15 03:15:45;;;;;;;19.93;16.63;;;16.70;99.90;;;;;;5032324;28;20197;-40
2021/08/15 03:18:14;;;;;;;23.37;16.60;;;16.70;99.90;;;;;;5025746;28;20245;-39
2021/08/15 03:20:39;;;;;;;21.20;16.33;;;16.70;99.90;;;;;;5024610;28;20201;-38
2021/08/15 03:23:05;;;;;;;21.00;15.80;;;16.80;99.90;;;;;;5031532;28;20935;-38
2021/08/15 03:25:31;;;;;;;21.40;16.50;;;16.70;99.90;;;;;;5041144;28;20456;-39
2021/08/15 03:27:56;;;;;;;19.73;16.73;;;16.80;99.90;;;;;;5028900;28;20202;-38
2021/08/15 03:30:22;;;;;;;19.23;16.07;;;16.80;99.90;;;;;;5027828;28;20197;-38
2021/08/15 03:32:48;;;;;;;21.67;15.53;;;16.70;99.90;;;;;;5025516;28;20218;-38
2021/08/15 03:35:13;;;;;;;22.73;16.23;;;16.70;99.90;;;;;;5025863;28;20197;-39
2021/08/15 03:37:39;;;;;;;19.20;16.53;;;16.70;99.90;;;;;;5032123;28;20190;-38
2021/08/15 03:40:05;;;;;;;23.47;17.53;;;16.70;99.90;;;;;;5042779;28;20193;-38
2021/08/15 03:42:32;;;;;;;19.53;16.50;;;16.70;99.90;;;;;;5032167;28;20194;-38
2021/08/15 03:44:57;;;;;;;21.53;16.07;;;16.70;99.90;;;;;;5049655;28;20427;-38
2021/08/15 03:47:23;;;;;;;18.23;16.23;;;16.60;99.90;;;;;;5035765;28;20915;-39
2021/08/15 03:49:49;;;;;;;20.60;16.50;;;16.60;99.90;;;;;;5031618;28;20190;-39
2021/08/15 03:52:14;;;;;;;20.10;15.70;;;16.60;99.90;;;;;;5034538;28;20229;-38
2021/08/15 03:54:42;;;;;;;20.30;16.60;;;16.60;99.90;;;;;;5040497;28;20295;-38
2021/08/15 03:57:07;;;;;;;23.90;16.70;;;16.60;99.90;;;;;;5033488;28;20754;-40
2021/08/15 03:59:33;;;;;;;20.77;17.00;;;16.60;99.90;;;;;;5034641;28;20432;-38
2021/08/15 04:01:58;;;;;;;23.53;18.50;;;16.70;99.90;;;;;;5035926;28;20210;-38
2021/08/15 04:04:24;;;;;;;20.87;16.90;;;16.60;99.90;;;;;;5032021;28;20194;-39
2021/08/15 04:06:50;;;;;;;25.90;17.67;;;16.70;99.90;;;;;;5032063;28;20192;-38
2021/08/15 04:09:15;;;;;;;25.87;18.17;;;16.70;99.90;;;;;;5047301;28;20600;-38
2021/08/15 04:11:41;;;;;;;22.47;15.77;;;16.70;99.90;;;;;;5035143;28;20217;-39
2021/08/15 04:14:07;;;;;;;22.93;17.87;;;16.70;99.90;;;;;;5031922;28;20194;-38
2021/08/15 04:16:33;;;;;;;18.33;15.90;;;16.60;99.90;;;;;;5034618;28;20186;-38
2021/08/15 04:18:59;;;;;;;21.60;18.67;;;16.60;99.90;;;;;;5031386;28;20529;-39
2021/08/15 04:21:25;;;;;;;23.93;18.60;;;16.60;99.90;;;;;;5031192;28;20822;-38
2021/08/15 04:23:51;;;;;;;20.60;17.30;;;16.70;99.90;;;;;;5043061;28;20186;-38
2021/08/15 04:26:17;;;;;;;23.97;18.37;;;16.70;99.90;;;;;;5042692;28;20204;-40
2021/08/15 04:28:42;;;;;;;23.63;19.80;;;16.70;99.90;;;;;;5031659;28;20680;-38
2021/08/15 04:31:08;;;;;;;28.70;18.47;;;16.70;99.90;;;;;;5044351;28;20428;-38
2021/08/15 04:33:34;;;;;;;21.57;18.57;;;16.70;99.90;;;;;;5031739;28;20214;-40
2021/08/15 04:35:59;;;;;;;24.00;19.23;;;16.70;99.90;;;;;;5029677;28;20285;-38
2021/08/15 04:38:25;;;;;;;22.73;18.33;;;16.70;99.90;;;;;;5035990;28;20201;-39
2021/08/15 04:40:51;;;;;;;22.60;18.90;;;16.80;99.90;;;;;;5041192;28;20656;-38
2021/08/15 04:43:20;;;;;;;22.03;18.30;;;16.80;99.90;;;;;;5035448;28;20594;-38
2021/08/15 04:45:46;;;;;;;22.80;19.20;;;16.80;99.90;;;;;;5048772;28;20695;-39
2021/08/15 04:48:13;;;;;;;26.40;21.23;;;16.80;99.90;;;;;;5032049;28;20533;-41
2021/08/15 04:50:39;;;;;;;26.00;18.90;;;16.90;99.90;;;;;;5029927;28;20194;-38
2021/08/15 04:53:05;;;;;;;22.40;18.77;;;16.90;99.90;;;;;;5038233;28;20480;-40
2021/08/15 04:55:31;;;;;;;22.10;18.03;;;16.90;99.90;;;;;;5039301;28;20519;-39
2021/08/15 04:57:56;;;;;;;23.33;20.00;;;16.90;99.90;;;;;;5038766;28;20198;-39
2021/08/15 05:00:22;;;;;;;23.47;18.23;;;16.90;99.90;;;;;;5031412;28;20281;-38
2021/08/15 05:02:48;;;;;;;26.63;19.00;;;16.90;99.90;;;;;;5028322;28;20194;-38
2021/08/15 05:05:13;;;;;;;23.43;19.00;;;16.90;99.90;;;;;;5028518;28;20191;-38
2021/08/15 05:07:39;;;;;;;25.13;19.47;;;16.90;99.90;;;;;;5035001;28;20222;-39
2021/08/15 05:10:05;;;;;;;22.53;18.23;;;17.00;99.90;;;;;;5035918;28;20194;-38
2021/08/15 05:12:31;;;;;;;21.43;18.50;;;17.00;99.90;;;;;;5028047;28;20565;-39
2021/08/15 05:14:57;;;;;;;28.83;21.80;;;17.10;99.90;;;;;;5030112;28;20432;-39
2021/08/15 05:17:22;;;;;;;26.80;20.93;;;17.10;99.90;;;;;;5037558;28;20190;-38
2021/08/15 05:19:48;;;;;;;26.50;20.47;;;17.10;99.90;;;;;;5027599;28;20182;-38
2021/08/15 05:22:14;;;;;;;25.47;19.40;;;17.10;99.90;;;;;;5027795;28;20451;-38
2021/08/15 05:24:40;;;;;;;27.50;19.10;;;17.10;99.90;;;;;;5029570;28;20263;-38
2021/08/15 05:27:06;;;;;;;24.40;18.20;;;17.10;99.90;;;;;;5029707;28;20437;-38
2021/08/15 05:29:31;;;;;;;27.03;18.90;;;17.10;99.90;;;;;;5027380;28;20214;-38
2021/08/15 05:31:57;;;;;;;26.57;19.77;;;17.10;99.90;;;;;;5036475;28;20210;-41
2021/08/15 05:34:23;;;;;;;25.80;20.30;;;17.20;99.90;;;;;;5026635;28;20198;-38
2021/08/15 05:36:48;;;;;;;23.97;18.50;;;17.20;99.90;;;;;;5027181;28;20183;-39
2021/08/15 05:39:14;;;;;;;31.43;20.40;;;17.30;99.90;;;;;;5035293;28;20272;-38
2021/08/15 05:41:40;;;;;;;24.00;18.87;;;17.30;99.90;;;;;;5046964;28;20251;-38
2021/08/15 05:44:05;;;;;;;23.77;19.33;;;17.40;99.90;;;;;;5041912;28;20205;-38
2021/08/15 05:46:31;;;;;;;25.93;18.83;;;17.50;99.90;;;;;;5039062;28;20202;-38
2021/08/15 05:48:57;;;;;;;22.67;18.23;;;17.50;99.90;;;;;;5026908;28;20199;-38
2021/08/15 05:51:22;;;;;;;25.87;19.40;;;17.60;99.90;;;;;;5027349;28;20301;-39
2021/08/15 05:53:48;;;;;;;25.70;18.60;;;17.70;99.90;;;;;;5034667;28;20186;-39
2021/08/15 05:56:13;;;;;;;22.70;17.77;;;17.80;99.90;;;;;;5041853;28;20186;-39
2021/08/15 05:58:39;;;;;;;21.37;17.17;;;18.00;99.90;;;;;;5026897;28;20183;-39
2021/08/15 06:01:05;;;;;;;20.23;17.87;;;18.10;99.90;;;;;;5027669;28;20186;-38
2021/08/15 06:03:30;;;;;;;22.77;17.63;;;18.20;99.90;;;;;;5026903;28;20190;-38
2021/08/15 06:05:56;;;;;;;25.47;17.93;;;18.20;99.90;;;;;;5026929;28;20289;-38
2021/08/15 06:08:22;;;;;;;21.77;17.67;;;18.30;99.90;;;;;;5034132;28;20198;-39
2021/08/15 06:10:47;;;;;;;20.80;17.33;;;18.40;99.90;;;;;;5035298;28;20197;-39
2021/08/15 06:13:15;;;;;;;19.93;15.33;;;18.40;99.90;;;;;;5025983;28;20673;-38
2021/08/15 06:15:41;;;;;;;18.83;16.10;;;18.50;99.90;;;;;;5026717;28;20695;-39
2021/08/15 06:18:06;;;;;;;19.27;16.33;;;18.60;99.90;;;;;;5028864;28;20417;-40
2021/08/15 06:20:32;;;;;;;19.33;15.60;;;18.60;99.90;;;;;;5046096;28;20220;-39
2021/08/15 06:22:57;;;;;;;20.00;14.67;;;18.60;99.90;;;;;;5043055;28;20228;-39
2021/08/15 06:25:23;;;;;;;23.80;16.53;;;18.60;99.90;;;;;;5032583;28;20601;-39
2021/08/15 06:27:49;;;;;;;20.50;15.80;;;18.70;99.90;;;;;;5030928;28;20194;-40
2021/08/15 06:30:16;;;;;;;25.50;16.83;;;18.70;99.90;;;;;;5026839;28;20193;-38
2021/08/15 06:32:53;;;;;;;19.20;15.20;;;18.80;99.90;;;;;;5031368;28;20276;-38
2021/08/15 06:35:23;;;;;;;17.10;14.20;;;19.00;99.90;;;;;;5026475;28;20420;-38
2021/08/15 06:37:52;;;;;;;17.67;13.03;;;19.20;99.90;;;;;;5028842;28;20482;-39
2021/08/15 06:40:18;;;;;;;17.50;12.07;;;19.50;99.90;;;;;;5044594;28;20518;-39
2021/08/15 06:42:44;;;;;;;19.90;12.07;;;19.60;99.90;;;;;;5037910;28;20417;-39
2021/08/15 06:45:11;;;;;;;15.20;11.93;;;19.70;99.90;;;;;;5046319;28;20530;-40
2021/08/15 06:47:37;;;;;;;15.27;12.37;;;19.80;99.90;;;;;;5028847;28;20943;-38
2021/08/15 06:50:04;;;;;;;12.07;10.40;;;19.90;99.90;;;;;;5025656;28;20528;-38
2021/08/15 06:52:31;;;;;;;12.90;10.17;;;20.10;99.90;;;;;;5028407;28;20476;-39
2021/08/15 06:55:00;;;;;;;12.70;10.10;;;20.30;99.90;;;;;;5033685;28;21068;-42
2021/08/15 06:57:27;;;;;;;10.73;8.90;;;20.40;99.90;;;;;;5035361;28;20417;-40
2021/08/15 06:59:53;;;;;;;12.13;10.23;;;20.50;99.90;;;;;;5027086;28;21006;-39
2021/08/15 07:02:19;;;;;;;18.23;9.97;;;20.70;99.90;;;;;;5037406;28;20418;-38
2021/08/15 07:04:45;;;;;;;10.90;8.63;;;20.80;99.90;;;;;;5027902;28;20483;-39
2021/08/15 07:07:11;;;;;;;13.27;8.80;;;21.00;99.90;;;;;;5027063;28;20182;-39
2021/08/15 07:09:37;;;;;;;13.13;8.93;;;21.10;99.90;;;;;;5037287;28;20441;-39
2021/08/15 07:12:03;;;;;;;11.40;8.23;;;21.10;99.90;;;;;;5036359;28;20784;-39
2021/08/15 07:14:29;;;;;;;8.40;7.57;;;21.10;99.90;;;;;;5026925;28;20425;-38
2021/08/15 07:16:58;;;;;;;10.67;7.77;;;21.10;99.90;;;;;;5033302;28;20688;-38
2021/08/15 07:19:24;;;;;;;9.97;8.07;;;21.20;99.90;;;;;;5026996;28;20193;-39
2021/08/15 07:21:51;;;;;;;15.20;8.70;;;21.10;99.90;;;;;;5026369;28;20432;-39
2021/08/15 07:24:17;;;;;;;8.50;7.03;;;21.10;99.90;;;;;;5031429;28;20444;-37
2021/08/15 07:26:42;;;;;;;9.03;7.30;;;21.20;99.90;;;;;;5043648;28;20483;-39
2021/08/15 07:29:08;;;;;;;11.63;6.90;;;21.20;99.90;;;;;;5027156;28;20268;-38
2021/08/15 07:31:34;;;;;;;11.00;7.30;;;21.20;99.90;;;;;;5027585;28;20716;-41
2021/08/15 07:34:00;;;;;;;9.77;7.50;;;21.30;99.90;;;;;;5027683;28;20715;-39
2021/08/15 07:36:26;;;;;;;10.30;7.50;;;21.40;99.90;;;;;;5029771;28;20237;-38
2021/08/15 07:38:51;;;;;;;10.33;6.67;;;21.50;99.90;;;;;;5038257;28;20421;-41
2021/08/15 07:41:17;;;;;;;10.77;7.00;;;21.50;99.90;;;;;;5030563;28;21143;-38
2021/08/15 07:43:43;;;;;;;8.80;6.47;;;21.60;99.90;;;;;;5044985;28;20266;-39
2021/08/15 07:46:13;;;;;;;9.30;6.17;;;21.70;99.90;;;;;;5036269;28;20239;-38
2021/08/15 07:48:42;;;;;;;7.30;6.40;;;21.70;99.90;;;;;;5036723;28;20563;-40
2021/08/15 07:51:08;;;;;;;9.30;6.23;;;21.70;99.90;;;;;;5031045;28;20445;-39
2021/08/15 07:53:34;;;;;;;6.90;5.63;;;21.70;99.90;;;;;;5034417;28;20516;-38
2021/08/15 07:56:00;;;;;;;8.23;5.60;;;21.80;99.90;;;;;;5032718;28;20194;-39
2021/08/15 07:58:25;;;;;;;8.80;5.50;;;21.80;99.90;;;;;;5026555;28;20417;-38
2021/08/15 08:00:52;;;;;;;7.73;5.90;;;21.80;99.90;;;;;;5031728;28;20204;-39
2021/08/15 08:03:18;;;;;;;8.60;6.43;;;21.90;99.90;;;;;;5036117;28;20762;-38
2021/08/15 08:05:44;;;;;;;6.90;5.43;;;21.90;99.90;;;;;;5035044;28;20429;-38
2021/08/15 08:08:10;;;;;;;9.03;5.27;;;21.90;99.90;;;;;;5035588;28;20653;-40
2021/08/15 08:10:37;;;;;;;5.53;5.03;;;21.90;99.90;;;;;;5039303;28;20524;-39
2021/08/15 08:13:06;;;;;;;8.73;4.87;;;21.90;99.90;;;;;;5036151;28;20209;-40
2021/08/15 08:15:32;;;;;;;9.03;4.73;;;21.90;99.90;;;;;;5034992;28;20971;-39
2021/08/15 08:17:57;;;;;;;9.67;5.23;;;21.80;99.90;;;;;;5035930;28;20512;-41
2021/08/15 08:20:23;;;;;;;6.13;4.90;;;21.90;99.90;;;;;;5034053;28;20192;-39
2021/08/15 08:22:49;;;;;;;6.07;4.83;;;21.90;99.90;;;;;;5032861;28;20660;-39
2021/08/15 08:25:16;;;;;;;6.53;4.63;;;21.90;99.90;;;;;;5039980;28;20431;-40
2021/08/15 08:27:43;;;;;;;5.10;4.60;;;21.90;99.90;;;;;;5040506;28;20190;-38
2021/08/15 08:30:09;;;;;;;5.53;4.40;;;22.00;99.90;;;;;;5038734;28;20417;-38
2021/08/15 08:32:35;;;;;;;6.40;4.10;;;22.00;99.90;;;;;;5038807;28;20842;-38
2021/08/15 08:35:00;;;;;;;5.13;3.97;;;22.00;99.90;;;;;;5041379;28;20425;-38
2021/08/15 08:37:26;;;;;;;5.20;4.30;;;22.00;99.90;;;;;;5040012;28;20187;-38
2021/08/15 08:39:52;;;;;;;8.80;4.80;;;22.00;99.90;;;;;;5038631;28;20194;-38
2021/08/15 08:42:18;;;;;;;6.17;4.20;;;22.10;99.90;;;;;;5035854;28;20204;-38
2021/08/15 08:44:44;;;;;;;7.00;4.53;;;22.20;99.90;;;;;;5036073;28;20720;-39
2021/08/15 08:47:11;;;;;;;4.30;3.90;;;22.20;99.90;;;;;;5039912;28;20471;-38
2021/08/15 08:49:41;;;;;;;6.47;4.83;;;22.30;99.90;;;;;;5037942;28;20182;-38
2021/08/15 08:52:07;;;;;;;5.90;4.10;;;22.30;99.90;;;;;;5038722;28;20471;-41
2021/08/15 08:54:34;;;;;;;4.40;3.87;;;22.30;99.90;;;;;;5038793;28;20431;-38
2021/08/15 08:56:59;;;;;;;7.27;4.27;;;22.30;99.90;;;;;;5042978;28;20209;-38
2021/08/15 08:59:25;;;;;;;5.43;4.10;;;22.30;99.90;;;;;;5039255;28;20547;-38
2021/08/15 09:01:51;;;;;;;5.57;3.83;;;22.30;99.90;;;;;;5039900;28;20194;-37
2021/08/15 09:04:17;;;;;;;5.73;4.70;;;22.30;99.90;;;;;;5039020;28;20224;-39
2021/08/15 09:06:43;;;;;;;6.50;4.37;;;22.30;99.90;;;;;;5040552;28;20424;-37
2021/08/15 09:09:17;;;;;;;6.93;4.70;;;22.30;99.90;;;;;;5034807;28;20449;-38
2021/08/15 09:11:45;;;;;;;6.33;4.40;;;22.30;99.90;;;;;;5040360;28;20489;-38
2021/08/15 09:14:14;;;;;;;8.70;4.73;;;22.30;99.90;;;;;;5038057;28;20472;-38
2021/08/15 09:16:49;;;;;;;8.37;4.53;;;22.30;99.90;;;;;;5039273;28;20444;-38
2021/08/15 09:19:27;;;;;;;13.00;5.03;;;22.40;99.90;;;;;;5039530;28;20425;-38
2021/08/15 09:21:57;;;;;;;5.77;3.87;;;22.40;99.90;;;;;;5038625;28;20425;-38
2021/08/15 09:24:23;;;;;;;4.73;3.70;;;22.40;99.90;;;;;;5040584;28;20904;-39
2021/08/15 09:26:57;;;;;;;5.43;3.40;;;22.50;99.90;;;;;;5044196;28;20451;-38
2021/08/15 09:29:23;;;;;;;6.00;3.70;;;22.50;99.90;;;;;;5039685;28;20443;-38
2021/08/15 09:31:49;;;;;;;6.67;3.47;;;22.50;99.90;;;;;;5037761;28;20420;-38
2021/08/15 09:34:29;;;;;;;4.67;3.50;;;22.60;99.90;;;;;;5039273;28;20418;-41
2021/08/15 09:36:55;;;;;;;6.17;3.73;;;22.60;99.90;;;;;;5038029;28;20232;-39
2021/08/15 09:39:33;;;;;;;6.63;4.00;;;22.60;99.90;;;;;;5036394;28;20439;-38
2021/08/15 09:41:59;;;;;;;4.90;3.80;;;22.70;99.90;;;;;;5040248;28;20975;-38
2021/08/15 09:44:30;;;;;;;4.63;3.40;;;22.70;99.90;;;;;;5037215;28;21104;-38
2021/08/15 09:47:08;;;;;;;5.93;3.60;;;22.70;99.90;;;;;;5037291;28;20475;-39
2021/08/15 09:49:35;;;;;;;5.50;3.10;;;22.80;99.90;;;;;;5037849;28;20429;-41
2021/08/15 09:52:01;;;;;;;3.80;2.70;;;22.80;99.90;;;;;;5022421;28;20480;-39
2021/08/15 09:54:27;;;;;;;2.70;2.37;;;22.80;99.90;;;;;;5036331;28;20526;-39
2021/08/15 09:56:56;;;;;;;6.40;3.30;;;22.80;99.90;;;;;;5039620;28;20448;-38
2021/08/15 09:59:23;;;;;;;5.80;3.37;;;22.80;99.90;;;;;;5037415;28;20421;-38
2021/08/15 10:01:54;;;;;;;4.07;2.70;;;22.90;99.90;;;;;;5036412;28;20432;-38
2021/08/15 10:04:22;;;;;;;5.00;2.97;;;23.00;99.90;;;;;;5036067;28;20436;-39
2021/08/15 10:06:53;;;;;;;5.20;3.33;;;23.00;99.90;;;;;;5037027;28;20421;-38
2021/08/15 10:09:24;;;;;;;5.70;3.17;;;23.10;99.90;;;;;;5033925;28;20449;-38
2021/08/15 10:11:50;;;;;;;5.07;3.10;;;23.10;99.90;;;;;;5039843;28;20420;-38
2021/08/15 10:14:16;;;;;;;6.83;3.20;;;23.20;99.90;;;;;;5040341;28;20554;-39
2021/08/15 10:17:03;;;;;;;5.33;3.00;;;23.20;99.90;;;;;;5038286;28;20902;-39
2021/08/15 10:19:52;;;;;;;3.80;2.80;;;23.20;99.90;;;;;;5036508;28;20820;-41
2021/08/15 10:22:23;;;;;;;4.40;2.53;;;23.30;99.90;;;;;;5034245;28;20524;-39
2021/08/15 10:24:57;;;;;;;7.97;3.23;;;23.30;99.90;;;;;;5031870;28;20570;-38
2021/08/15 10:27:41;;;;;;;4.37;3.03;;;23.40;99.90;;;;;;5042800;28;20427;-38
2021/08/15 10:30:13;;;;;;;6.77;3.40;;;23.40;99.90;;;;;;5041505;28;20521;-40
2021/08/15 10:32:54;;;;;;;4.60;3.07;;;23.40;99.90;;;;;;5038195;28;20456;-38
2021/08/15 10:35:21;;;;;;;4.60;3.40;;;23.50;99.90;;;;;;5027455;28;20517;-38
2021/08/15 10:38:06;;;;;;;3.80;3.07;;;23.50;99.90;;;;;;5028877;28;20430;-38
2021/08/15 10:40:41;;;;;;;4.50;2.67;;;23.50;99.90;;;;;;5037059;28;20799;-39
2021/08/15 10:43:11;;;;;;;5.23;2.93;;;23.60;99.90;;;;;;5040334;28;20853;-39
2021/08/15 10:45:38;;;;;;;3.70;2.87;;;23.70;99.90;;;;;;5027444;28;20457;-39
2021/08/15 10:48:12;;;;;;;6.43;3.27;;;23.80;99.90;;;;;;5032635;28;20428;-38
2021/08/15 10:51:06;;;;;;;4.00;2.77;;;23.90;99.90;;;;;;5030749;28;20526;-40
2021/08/15 10:53:35;;;;;;;5.77;3.13;;;24.00;99.90;;;;;;5026302;28;20486;-38
2021/08/15 10:56:06;;;;;;;7.30;2.77;;;24.10;99.90;;;;;;5031941;28;20814;-38
2021/08/15 10:58:39;;;;;;;5.07;3.20;;;24.10;99.90;;;;;;5038426;28;20524;-39
2021/08/15 11:01:18;;;;;;;9.77;3.53;;;24.20;99.90;;;;;;5027919;28;20470;-38
2021/08/15 11:03:47;;;;;;;5.27;3.77;;;24.20;99.90;;;;;;5035097;28;20455;-39
2021/08/15 11:06:31;;;;;;;6.43;3.37;;;24.40;99.90;;;;;;5027442;28;20410;-39
2021/08/15 11:08:58;;;;;;;3.90;3.50;;;24.40;99.90;;;;;;5033642;28;20519;-41
2021/08/15 11:11:26;;;;;;;6.07;3.73;;;24.50;99.90;;;;;;5039368;28;20428;-38
2021/08/15 11:14:18;;;;;;;4.67;3.30;;;24.50;99.90;;;;;;5038796;28;20471;-39
2021/08/15 11:16:45;;;;;;;5.97;3.60;;;24.50;99.90;;;;;;5028732;28;21237;-40
2021/08/15 11:19:11;;;;;;;4.40;3.07;;;24.60;99.90;;;;;;5029965;28;20498;-39
2021/08/15 11:22:09;;;;;;;3.87;3.13;;;24.60;99.90;;;;;;5027475;28;20422;-39
2021/08/15 11:24:56;;;;;;;5.80;3.57;;;24.70;99.90;;;;;;5027055;28;20186;-38
2021/08/15 11:27:30;;;;;;;5.90;3.93;;;24.70;99.90;;;;;;5045319;28;21072;-39
2021/08/15 11:30:08;;;;;;;6.43;3.40;;;24.70;99.90;;;;;;5034849;28;20417;-38
2021/08/15 11:32:34;;;;;;;7.00;3.60;;;24.70;99.90;;;;;;5027321;28;20891;-38
2021/08/15 11:35:07;;;;;;;3.53;3.13;;;24.70;99.90;;;;;;5027686;28;20533;-39
2021/08/15 11:37:40;;;;;;;4.40;3.40;;;24.70;99.90;;;;;;5027134;28;20433;-40
2021/08/15 11:40:14;;;;;;;4.77;3.80;;;24.80;99.90;;;;;;5028313;28;20519;-39
2021/08/15 11:42:41;;;;;;;6.73;4.00;;;24.80;99.90;;;;;;5040093;28;20462;-40
2021/08/15 11:45:08;;;;;;;4.20;3.73;;;24.90;99.90;;;;;;5033386;28;20432;-38
2021/08/15 11:47:39;;;;;;;5.60;3.50;;;24.90;99.90;;;;;;5027306;28;20829;-39
2021/08/15 11:50:19;;;;;;;5.30;3.67;;;25.00;99.90;;;;;;5035572;28;20421;-39
2021/08/15 11:52:46;;;;;;;6.13;4.03;;;25.10;99.90;;;;;;5027174;28;20523;-40
2021/08/15 11:55:20;;;;;;;7.20;4.10;;;25.20;99.90;;;;;;5027308;28;20452;-38
2021/08/15 11:57:57;;;;;;;4.07;3.50;;;25.30;99.90;;;;;;5031247;28;20455;-38
2021/08/15 12:00:31;;;;;;;5.30;3.60;;;25.40;99.90;;;;;;5044524;28;21090;-39
2021/08/15 12:03:14;;;;;;;5.17;4.27;;;25.50;99.90;;;;;;5032522;28;20456;-38
2021/08/15 12:05:47;;;;;;;4.30;3.60;;;25.50;99.90;;;;;;5031932;28;20908;-44
2021/08/15 12:08:15;;;;;;;5.27;3.73;;;25.50;99.90;;;;;;5030842;28;20547;-39
2021/08/15 12:10:51;;;;;;;6.70;3.63;;;25.50;99.90;;;;;;5033896;28;20432;-40
2021/08/15 12:13:38;;;;;;;5.43;3.67;;;25.50;99.90;;;;;;5044666;28;20463;-40
2021/08/15 12:16:03;;;;;;;5.27;3.10;;;25.50;99.90;;;;;;5042525;28;20784;-39
2021/08/15 12:18:38;;;;;;;4.53;3.40;;;25.50;99.90;;;;;;5046127;28;20413;-39
2021/08/15 12:21:25;;;;;;;3.80;3.27;;;25.50;99.90;;;;;;5030597;28;20192;-39
2021/08/15 12:24:10;;;;;;;6.30;3.30;;;25.50;99.90;;;;;;5035535;28;20447;-38
2021/08/15 12:26:56;;;;;;;4.23;3.53;;;25.50;99.90;;;;;;5043475;28;20440;-40
2021/08/15 12:29:22;;;;;;;3.80;3.00;;;25.50;99.90;;;;;;5036464;28;20413;-39
2021/08/15 12:32:09;;;;;;;6.07;3.43;;;25.50;99.90;;;;;;5039906;28;20431;-39
2021/08/15 12:34:59;;;;;;;4.43;3.07;;;25.60;99.90;;;;;;5033519;28;20214;-38
2021/08/15 12:37:28;;;;;;;4.10;3.40;;;25.60;99.90;;;;;;5032841;28;20540;-39
2021/08/15 12:40:08;;;;;;;4.80;3.23;;;25.70;99.90;;;;;;5032846;28;20521;-38
2021/08/15 12:42:35;;;;;;;5.80;3.33;;;25.70;99.90;;;;;;5043438;28;20485;-40